Time;durP1;ratioP1;P1;durP2;ratioP2;P2;SDS_P1;SDS_P2;PMS_P1;PMS_P2;Temp;Humidity;BMP_temperature;BMP_pressure;BME280_temperature;BME280_humidity;BME280_pressure;Samples;Min_cycle;Max_cycle;Signal;HPM_P1;HPM_P2
2021/03/18 00:01:24;;;;;;;5.63;3.50;;;2.00;99.90;;;;;;5049065;28;20441;-78
2021/03/18 00:03:51;;;;;;;3.57;3.27;;;2.10;99.90;;;;;;5053639;28;20452;-77
2021/03/18 00:06:17;;;;;;;4.83;3.60;;;2.20;99.90;;;;;;5052489;28;20435;-77
2021/03/18 00:08:45;;;;;;;7.70;5.23;;;2.10;99.90;;;;;;5053783;28;20459;-77
2021/03/18 00:11:17;;;;;;;3.97;2.97;;;2.10;99.90;;;;;;5049276;28;20440;-76
2021/03/18 00:13:44;;;;;;;4.83;4.23;;;2.00;99.90;;;;;;5022577;28;20444;-77
2021/03/18 00:16:10;;;;;;;4.40;3.90;;;1.90;99.90;;;;;;5051967;28;20453;-77
2021/03/18 00:18:49;;;;;;;4.00;3.13;;;1.80;99.90;;;;;;5054985;28;20439;-78
2021/03/18 00:21:15;;;;;;;5.33;4.53;;;1.80;99.90;;;;;;5057286;28;20766;-78
2021/03/18 00:23:41;;;;;;;4.50;3.37;;;1.90;99.90;;;;;;5055079;28;20413;-78
2021/03/18 00:26:07;;;;;;;5.43;4.07;;;1.80;99.90;;;;;;5052440;28;20994;-77
2021/03/18 00:28:33;;;;;;;6.50;3.70;;;1.80;99.90;;;;;;5050298;28;20760;-78
2021/03/18 00:30:59;;;;;;;4.90;3.97;;;1.80;99.90;;;;;;5055723;28;20417;-76
2021/03/18 00:33:26;;;;;;;6.67;3.97;;;1.80;99.90;;;;;;5055271;28;20493;-77
2021/03/18 00:35:53;;;;;;;3.67;3.20;;;1.80;99.90;;;;;;5054860;28;20464;-77
2021/03/18 00:38:19;;;;;;;5.00;4.50;;;1.80;99.90;;;;;;5056215;28;20417;-78
2021/03/18 00:40:48;;;;;;;4.37;3.27;;;1.60;99.90;;;;;;5059779;28;20425;-78
2021/03/18 00:43:16;;;;;;;6.23;3.60;;;1.50;99.90;;;;;;5058733;28;20439;-77
2021/03/18 00:45:44;;;;;;;4.43;3.40;;;1.50;99.90;;;;;;5062831;28;20921;-78
2021/03/18 00:48:12;;;;;;;5.00;3.60;;;1.50;99.90;;;;;;5071834;28;20859;-77
2021/03/18 00:50:44;;;;;;;4.03;3.10;;;1.50;99.90;;;;;;5055620;28;20408;-77
2021/03/18 00:53:16;;;;;;;4.40;3.23;;;1.50;99.90;;;;;;5054420;28;20933;-77
2021/03/18 00:55:42;;;;;;;4.67;2.97;;;1.40;99.90;;;;;;5033220;28;20448;-76
2021/03/18 00:58:08;;;;;;;4.93;3.37;;;1.50;99.90;;;;;;5032919;28;20428;-77
2021/03/18 01:01:01;;;;;;;4.67;3.50;;;1.40;99.90;;;;;;5051760;28;20409;-77
2021/03/18 01:03:28;;;;;;;4.37;3.40;;;1.40;99.90;;;;;;5038434;28;20659;-77
2021/03/18 01:06:01;;;;;;;6.20;3.63;;;1.40;99.90;;;;;;5037323;28;20435;-77
2021/03/18 01:08:28;;;;;;;3.50;3.20;;;1.30;99.90;;;;;;5052598;28;20455;-78
2021/03/18 01:11:04;;;;;;;5.23;3.13;;;1.30;99.90;;;;;;5061081;28;20492;-77
2021/03/18 01:13:30;;;;;;;3.90;3.33;;;1.30;99.90;;;;;;5037614;28;20435;-76
2021/03/18 01:16:05;;;;;;;7.60;3.60;;;1.20;99.90;;;;;;5057462;28;20984;-77
2021/03/18 01:18:47;;;;;;;5.53;4.33;;;1.20;99.90;;;;;;5068649;28;20947;-75
2021/03/18 01:21:13;;;;;;;4.93;3.40;;;1.20;99.90;;;;;;5049385;28;20420;-74
2021/03/18 01:23:40;;;;;;;4.00;3.40;;;1.20;99.90;;;;;;5057925;28;20528;-77
2021/03/18 01:26:06;;;;;;;5.50;3.47;;;1.20;99.90;;;;;;5028240;28;20919;-77
2021/03/18 01:28:33;;;;;;;6.80;3.50;;;1.10;99.90;;;;;;5049297;28;20497;-78
2021/03/18 01:31:00;;;;;;;4.73;3.13;;;1.10;99.90;;;;;;5033898;28;20420;-78
2021/03/18 01:33:25;;;;;;;3.50;3.20;;;1.10;99.90;;;;;;5027095;28;20465;-77
2021/03/18 01:35:51;;;;;;;3.40;3.07;;;1.20;99.90;;;;;;5054328;28;20507;-77
2021/03/18 01:38:18;;;;;;;4.50;3.50;;;1.10;99.90;;;;;;5047264;28;20174;-77
2021/03/18 01:40:44;;;;;;;6.07;4.10;;;1.10;99.90;;;;;;5048381;28;20455;-79
2021/03/18 01:43:10;;;;;;;4.40;3.57;;;1.00;99.90;;;;;;5056017;28;20423;-78
2021/03/18 01:45:36;;;;;;;4.33;3.37;;;1.00;99.90;;;;;;5061673;28;20419;-79
2021/03/18 01:48:03;;;;;;;4.37;3.80;;;0.90;99.90;;;;;;5051263;28;20178;-77
2021/03/18 01:50:30;;;;;;;4.30;3.57;;;0.90;99.90;;;;;;5056719;28;20878;-78
2021/03/18 01:52:57;;;;;;;5.20;3.70;;;0.90;99.90;;;;;;5048979;28;21023;-78
2021/03/18 01:55:28;;;;;;;3.93;3.47;;;0.90;99.90;;;;;;5053326;28;20814;-77
2021/03/18 01:57:54;;;;;;;4.33;3.93;;;0.80;99.90;;;;;;5050763;28;20505;-78
2021/03/18 02:00:20;;;;;;;4.00;3.67;;;0.70;99.90;;;;;;5056865;28;20948;-77
2021/03/18 02:02:46;;;;;;;4.37;3.43;;;0.70;99.90;;;;;;5066020;28;20180;-76
2021/03/18 02:05:12;;;;;;;5.03;4.20;;;0.60;99.90;;;;;;5057298;28;20420;-77
2021/03/18 02:07:39;;;;;;;5.90;4.10;;;0.60;99.90;;;;;;5045465;28;20178;-78
2021/03/18 02:10:06;;;;;;;5.87;3.43;;;0.60;99.90;;;;;;5052175;28;20972;-79
2021/03/18 02:12:32;;;;;;;4.53;3.77;;;0.60;99.90;;;;;;5052456;28;20428;-76
2021/03/18 02:14:58;;;;;;;4.43;3.60;;;0.40;99.90;;;;;;5060379;28;20408;-78
2021/03/18 02:17:32;;;;;;;3.80;3.50;;;0.40;99.90;;;;;;5048078;28;20514;-77
2021/03/18 02:20:25;;;;;;;5.50;3.50;;;0.30;99.90;;;;;;5052565;28;20448;-78
2021/03/18 02:23:28;;;;;;;4.80;3.43;;;0.20;99.90;;;;;;5060901;28;20419;-77
2021/03/18 02:26:12;;;;;;;4.37;3.20;;;0.30;99.90;;;;;;5057700;28;20447;-78
2021/03/18 02:28:54;;;;;;;5.37;3.63;;;0.20;99.90;;;;;;5044459;28;20487;-76
2021/03/18 02:31:50;;;;;;;6.37;4.60;;;0.20;99.90;;;;;;5063079;28;20416;-77
2021/03/18 02:34:28;;;;;;;3.63;3.30;;;0.20;99.90;;;;;;5051587;28;20401;-76
2021/03/18 02:37:06;;;;;;;5.07;3.50;;;0.10;99.90;;;;;;5059096;28;20499;-77
2021/03/18 02:39:36;;;;;;;5.13;3.97;;;0.10;99.90;;;;;;5057319;28;20502;-78
2021/03/18 02:42:05;;;;;;;4.53;3.77;;;0.00;99.90;;;;;;5044834;28;20953;-77
2021/03/18 02:44:33;;;;;;;4.43;3.40;;;0.00;99.90;;;;;;5051395;28;20432;-76
2021/03/18 02:47:11;;;;;;;5.73;4.30;;;0.10;99.90;;;;;;5052256;28;20471;-77
2021/03/18 02:49:46;;;;;;;4.07;3.60;;;0.00;99.90;;;;;;5057439;28;20454;-78
2021/03/18 02:52:17;;;;;;;5.23;4.33;;;-0.10;99.90;;;;;;5062397;28;20434;-78
2021/03/18 02:54:44;;;;;;;4.77;3.80;;;0.00;99.90;;;;;;5048193;28;20460;-78
2021/03/18 02:57:12;;;;;;;5.33;4.80;;;0.00;99.90;;;;;;5050002;28;20555;-77
2021/03/18 02:59:40;;;;;;;4.50;3.57;;;0.00;99.90;;;;;;5042154;28;20479;-77
2021/03/18 03:02:11;;;;;;;4.57;3.73;;;-0.10;99.90;;;;;;5043809;28;20464;-77
2021/03/18 03:04:39;;;;;;;6.13;4.00;;;-0.20;99.90;;;;;;5046240;28;20453;-78
2021/03/18 03:07:07;;;;;;;4.13;3.40;;;-0.30;99.90;;;;;;5062857;28;20441;-79
2021/03/18 03:09:35;;;;;;;8.33;3.87;;;-0.30;99.90;;;;;;5057761;28;20436;-77
2021/03/18 03:12:02;;;;;;;7.93;4.30;;;-0.30;99.90;;;;;;5066973;28;20811;-78
2021/03/18 03:14:30;;;;;;;4.10;3.20;;;-0.40;99.90;;;;;;5055974;28;20423;-77
2021/03/18 03:16:56;;;;;;;5.63;4.10;;;-0.40;99.90;;;;;;5043420;28;20461;-77
2021/03/18 03:19:22;;;;;;;4.77;3.77;;;-0.40;99.90;;;;;;5050817;28;20425;-77
2021/03/18 03:21:49;;;;;;;5.00;3.80;;;-0.40;99.90;;;;;;5050355;28;20425;-77
2021/03/18 03:24:16;;;;;;;4.60;3.80;;;-0.50;99.90;;;;;;5063747;28;20437;-78
2021/03/18 03:26:43;;;;;;;5.43;4.27;;;-0.50;99.90;;;;;;5060615;28;20425;-77
2021/03/18 03:29:09;;;;;;;7.93;4.27;;;-0.50;99.90;;;;;;5050174;28;20471;-78
2021/03/18 03:31:35;;;;;;;4.80;4.30;;;-0.50;99.90;;;;;;5050449;28;20804;-77
2021/03/18 03:34:05;;;;;;;4.17;3.77;;;-0.50;99.90;;;;;;5058501;28;20514;-78
2021/03/18 03:36:33;;;;;;;5.27;4.20;;;-0.50;99.90;;;;;;5043768;28;20488;-78
2021/03/18 03:38:58;;;;;;;3.50;3.20;;;-0.60;99.90;;;;;;5053115;28;20436;-78
2021/03/18 03:41:24;;;;;;;4.10;2.93;;;-0.60;99.90;;;;;;5050343;28;20421;-78
2021/03/18 03:43:50;;;;;;;5.03;3.50;;;-0.60;99.90;;;;;;5049570;28;20182;-79
2021/03/18 03:46:16;;;;;;;3.60;3.30;;;-0.60;99.90;;;;;;5064647;28;20178;-78
2021/03/18 03:48:41;;;;;;;4.10;3.50;;;-0.70;99.90;;;;;;5057711;28;20198;-78
2021/03/18 03:51:07;;;;;;;7.17;4.30;;;-0.70;99.90;;;;;;5049760;28;20477;-77
2021/03/18 03:53:50;;;;;;;6.17;3.53;;;-0.70;99.90;;;;;;5055277;28;20195;-78
2021/03/18 03:56:24;;;;;;;5.20;3.93;;;-0.80;99.90;;;;;;5054314;28;20696;-77
2021/03/18 03:58:59;;;;;;;6.67;4.23;;;-0.80;99.90;;;;;;5066913;28;20833;-77
2021/03/18 04:01:38;;;;;;;3.60;3.30;;;-0.80;99.90;;;;;;5054633;28;20426;-77
2021/03/18 04:04:11;;;;;;;5.80;3.83;;;-0.80;99.90;;;;;;5051146;28;20413;-77
2021/03/18 04:06:39;;;;;;;6.33;4.10;;;-0.80;99.90;;;;;;5063943;28;20416;-77
2021/03/18 04:09:07;;;;;;;7.60;3.90;;;-0.80;99.90;;;;;;5074944;28;20443;-78
2021/03/18 04:11:35;;;;;;;3.97;3.53;;;-0.80;99.90;;;;;;5072833;28;20432;-77
2021/03/18 04:14:06;;;;;;;5.13;4.10;;;-0.80;99.90;;;;;;5052674;28;20414;-79
2021/03/18 04:16:34;;;;;;;6.87;4.47;;;-0.80;99.90;;;;;;5040827;28;20473;-77
2021/03/18 04:19:01;;;;;;;6.20;4.00;;;-0.80;99.90;;;;;;5067542;28;20437;-80
2021/03/18 04:21:30;;;;;;;6.20;3.80;;;-0.80;99.90;;;;;;5060944;28;20417;-78
2021/03/18 04:24:01;;;;;;;4.63;3.50;;;-0.90;99.90;;;;;;5038938;28;20417;-77
2021/03/18 04:26:27;;;;;;;4.87;4.13;;;-0.90;99.90;;;;;;5057621;28;20425;-78
2021/03/18 04:28:53;;;;;;;5.77;4.00;;;-0.90;99.90;;;;;;5073577;28;20457;-78
2021/03/18 04:31:19;;;;;;;5.10;4.23;;;-0.90;99.90;;;;;;5073274;28;20499;-78
2021/03/18 04:33:45;;;;;;;4.67;3.50;;;-0.90;99.90;;;;;;5054885;28;20188;-79
2021/03/18 04:36:11;;;;;;;7.00;4.20;;;-0.90;99.90;;;;;;5072460;28;20460;-77
2021/03/18 04:38:37;;;;;;;4.10;3.70;;;-0.90;99.90;;;;;;5053279;28;20467;-77
2021/03/18 04:41:05;;;;;;;5.27;4.37;;;-0.80;99.90;;;;;;5036549;28;20433;-77
2021/03/18 04:43:30;;;;;;;5.97;3.93;;;-0.90;99.90;;;;;;5058099;28;20193;-78
2021/03/18 04:45:58;;;;;;;4.80;4.30;;;-0.90;99.90;;;;;;5066523;28;20435;-78
2021/03/18 04:48:25;;;;;;;5.17;4.17;;;-0.90;99.90;;;;;;5049866;28;20280;-78
2021/03/18 04:50:50;;;;;;;5.67;4.10;;;-1.00;99.90;;;;;;5047633;28;20893;-77
2021/03/18 04:53:18;;;;;;;8.20;4.33;;;-1.00;99.90;;;;;;5050694;28;20507;-75
2021/03/18 04:55:44;;;;;;;4.30;3.90;;;-1.00;99.90;;;;;;5052640;28;20211;-77
2021/03/18 04:58:11;;;;;;;5.47;4.97;;;-1.00;99.90;;;;;;5045543;28;20456;-79
2021/03/18 05:00:38;;;;;;;7.23;4.43;;;-1.00;99.90;;;;;;5059799;28;20233;-80
2021/03/18 05:03:07;;;;;;;4.63;3.73;;;-1.00;99.90;;;;;;5067637;28;20942;-77
2021/03/18 05:05:34;;;;;;;23.20;4.53;;;-1.00;99.90;;;;;;5060486;28;20432;-78
2021/03/18 05:08:01;;;;;;;4.70;4.30;;;-1.00;99.90;;;;;;5042589;28;20449;-80
2021/03/18 05:10:31;;;;;;;4.23;3.83;;;-1.00;99.90;;;;;;5057804;28;20444;-80
2021/03/18 05:12:59;;;;;;;5.07;4.23;;;-1.00;99.90;;;;;;5062557;28;20455;-80
2021/03/18 05:15:25;;;;;;;11.13;4.60;;;-1.00;99.90;;;;;;5057881;28;20514;-80
2021/03/18 05:17:52;;;;;;;4.80;4.20;;;-0.90;99.90;;;;;;5062220;28;20801;-78
2021/03/18 05:20:21;;;;;;;5.80;4.10;;;-0.90;99.90;;;;;;5067229;28;20443;-78
2021/03/18 05:22:47;;;;;;;6.13;4.37;;;-0.90;99.90;;;;;;5043089;28;20430;-79
2021/03/18 05:25:17;;;;;;;10.30;4.50;;;-0.80;99.90;;;;;;5035476;28;20444;-78
2021/03/18 05:27:43;;;;;;;8.17;5.50;;;-0.70;99.90;;;;;;5043891;28;20455;-78
2021/03/18 05:30:10;;;;;;;6.63;5.37;;;-0.60;99.90;;;;;;5060206;28;21012;-79
2021/03/18 05:32:37;;;;;;;6.10;5.50;;;-0.60;99.90;;;;;;5034947;28;20228;-79
2021/03/18 05:35:08;;;;;;;6.03;5.43;;;-0.60;99.90;;;;;;5054992;28;20432;-78
2021/03/18 05:37:33;;;;;;;6.53;4.60;;;-0.50;99.90;;;;;;5049618;28;20444;-78
2021/03/18 05:40:00;;;;;;;4.53;4.10;;;-0.60;99.90;;;;;;5041422;28;20431;-78
2021/03/18 05:42:26;;;;;;;5.80;4.23;;;-0.60;99.90;;;;;;5062146;28;20174;-79
2021/03/18 05:44:51;;;;;;;6.17;4.10;;;-0.70;99.90;;;;;;5052628;28;20838;-75
2021/03/18 05:47:18;;;;;;;6.03;4.57;;;-0.70;99.90;;;;;;5064266;28;20185;-76
2021/03/18 05:49:45;;;;;;;7.40;4.53;;;-0.70;99.90;;;;;;5054899;28;20672;-77
2021/03/18 05:52:11;;;;;;;5.13;4.63;;;-0.70;99.90;;;;;;5062270;28;20417;-76
2021/03/18 05:54:41;;;;;;;5.60;4.60;;;-0.70;99.90;;;;;;5061210;28;20930;-77
2021/03/18 05:57:09;;;;;;;8.83;5.07;;;-0.70;99.90;;;;;;5061256;28;20468;-75
2021/03/18 05:59:37;;;;;;;5.33;4.90;;;-0.70;99.90;;;;;;5055344;28;20456;-78
2021/03/18 06:02:03;;;;;;;4.40;4.00;;;-0.60;99.90;;;;;;5056879;28;20737;-77
2021/03/18 06:04:29;;;;;;;6.53;4.20;;;-0.60;99.90;;;;;;5058519;28;20474;-80
2021/03/18 06:06:55;;;;;;;5.17;4.63;;;-0.60;99.90;;;;;;5063532;28;20832;-77
2021/03/18 06:09:20;;;;;;;5.50;4.30;;;-0.60;99.90;;;;;;5058389;28;20451;-78
2021/03/18 06:11:46;;;;;;;5.40;4.30;;;-0.50;99.90;;;;;;5055237;28;20520;-76
2021/03/18 06:14:12;;;;;;;6.87;4.80;;;-0.50;99.90;;;;;;5055746;28;20182;-76
2021/03/18 06:16:40;;;;;;;6.90;4.63;;;-0.50;99.90;;;;;;5056200;28;20447;-76
2021/03/18 06:19:07;;;;;;;8.63;4.83;;;-0.50;99.90;;;;;;5056754;28;20250;-77
2021/03/18 06:21:48;;;;;;;6.30;4.73;;;-0.50;99.90;;;;;;5065140;28;20519;-79
2021/03/18 06:24:14;;;;;;;6.23;4.87;;;-0.40;99.90;;;;;;5053390;28;20450;-78
2021/03/18 06:26:40;;;;;;;6.87;4.57;;;-0.30;99.90;;;;;;5055345;28;20436;-78
2021/03/18 06:29:26;;;;;;;5.90;5.20;;;-0.30;99.90;;;;;;5061901;28;20497;-76
2021/03/18 06:31:51;;;;;;;4.97;4.40;;;-0.30;99.90;;;;;;5036067;28;20192;-75
2021/03/18 06:34:37;;;;;;;7.50;4.90;;;-0.30;99.90;;;;;;5059283;28;20503;-78
2021/03/18 06:37:04;;;;;;;6.33;5.67;;;-0.10;99.90;;;;;;5059764;28;20527;-78
2021/03/18 06:39:31;;;;;;;7.80;6.00;;;-0.10;99.90;;;;;;5040976;28;20489;-77
2021/03/18 06:41:59;;;;;;;8.30;6.70;;;-0.20;99.90;;;;;;5056295;28;20478;-76
2021/03/18 06:44:30;;;;;;;6.93;6.30;;;-0.20;99.90;;;;;;5058427;28;20436;-77
2021/03/18 06:47:07;;;;;;;6.70;5.90;;;-0.10;99.90;;;;;;5054134;28;20421;-76
2021/03/18 06:49:32;;;;;;;8.27;5.50;;;0.00;99.90;;;;;;5042084;28;20486;-77
2021/03/18 06:52:11;;;;;;;8.17;5.10;;;0.20;99.90;;;;;;5059421;28;20813;-77
2021/03/18 06:54:42;;;;;;;13.17;5.90;;;0.30;99.90;;;;;;5037653;28;20655;-77
2021/03/18 06:57:09;;;;;;;13.30;6.70;;;0.40;99.90;;;;;;5048171;28;20472;-78
2021/03/18 06:59:37;;;;;;;14.10;7.20;;;0.70;99.90;;;;;;5049839;28;20803;-77
2021/03/18 07:02:06;;;;;;;11.93;7.47;;;0.70;99.90;;;;;;5041619;28;20449;-76
2021/03/18 07:04:39;;;;;;;11.23;7.27;;;0.80;99.90;;;;;;5060441;28;20428;-77
2021/03/18 07:07:06;;;;;;;11.67;8.27;;;0.80;99.90;;;;;;5057557;28;20432;-76
2021/03/18 07:09:32;;;;;;;12.93;7.10;;;0.90;99.90;;;;;;5059694;28;20493;-78
2021/03/18 07:12:04;;;;;;;9.37;6.80;;;0.90;99.90;;;;;;5053252;28;20437;-77
2021/03/18 07:14:44;;;;;;;10.70;6.63;;;1.00;99.90;;;;;;5036172;28;20416;-77
2021/03/18 07:17:15;;;;;;;8.60;6.43;;;1.20;99.90;;;;;;5040272;28;21008;-77
2021/03/18 07:19:41;;;;;;;8.63;6.17;;;1.30;99.90;;;;;;5046692;28;20985;-77
2021/03/18 07:22:19;;;;;;;9.60;6.70;;;1.50;99.90;;;;;;5051853;28;20437;-76
2021/03/18 07:24:52;;;;;;;12.50;8.87;;;1.40;99.90;;;;;;5055684;28;20423;-76
2021/03/18 07:27:18;;;;;;;8.37;7.33;;;1.60;99.90;;;;;;5051217;28;20424;-75
2021/03/18 07:29:51;;;;;;;9.10;7.13;;;1.60;99.90;;;;;;5056429;28;20445;-76
2021/03/18 07:32:16;;;;;;;10.37;8.40;;;1.70;99.90;;;;;;5043289;28;20186;-77
2021/03/18 07:34:43;;;;;;;8.90;7.43;;;1.90;99.90;;;;;;5055492;28;20435;-78
2021/03/18 07:37:10;;;;;;;12.50;9.50;;;2.00;99.90;;;;;;5054312;28;20237;-76
2021/03/18 07:39:40;;;;;;;9.20;7.10;;;2.20;99.90;;;;;;5061779;28;20521;-77
2021/03/18 07:42:08;;;;;;;8.07;6.90;;;2.20;99.90;;;;;;5046932;28;20440;-77
2021/03/18 07:44:37;;;;;;;7.40;6.10;;;2.40;99.90;;;;;;5058919;28;20502;-77
2021/03/18 07:47:04;;;;;;;9.93;6.77;;;2.50;99.90;;;;;;5056862;28;20433;-78
2021/03/18 07:49:46;;;;;;;8.27;6.73;;;2.70;99.90;;;;;;5056430;28;21264;-76
2021/03/18 07:52:17;;;;;;;7.27;5.37;;;2.90;99.90;;;;;;5061704;28;20458;-78
2021/03/18 07:54:48;;;;;;;10.57;6.00;;;3.00;99.90;;;;;;5042750;28;20423;-78
2021/03/18 07:57:15;;;;;;;10.57;6.87;;;3.10;99.90;;;;;;5058078;28;20876;-77
2021/03/18 07:59:42;;;;;;;8.13;6.30;;;3.30;99.90;;;;;;5060435;28;20440;-80
2021/03/18 08:02:17;;;;;;;11.53;5.80;;;3.30;99.90;;;;;;5063647;28;20494;-74
2021/03/18 08:04:47;;;;;;;6.23;5.60;;;3.30;99.90;;;;;;5059542;28;20868;-78
2021/03/18 08:07:49;;;;;;;12.70;6.60;;;3.30;99.90;;;;;;5058020;28;20425;-78
2021/03/18 08:10:20;;;;;;;7.53;5.70;;;3.20;99.90;;;;;;5044820;28;20475;-78
2021/03/18 08:12:57;;;;;;;11.90;7.57;;;3.20;99.90;;;;;;5049131;28;20429;-78
2021/03/18 08:15:30;;;;;;;8.60;6.83;;;3.20;99.90;;;;;;5045399;28;20427;-78
2021/03/18 08:18:13;;;;;;;7.57;6.27;;;3.30;99.90;;;;;;5057238;28;20438;-78
2021/03/18 08:20:41;;;;;;;6.27;5.67;;;3.30;99.90;;;;;;5060980;28;20420;-79
2021/03/18 08:23:22;;;;;;;6.50;5.40;;;3.40;99.90;;;;;;5058020;28;20430;-78
2021/03/18 08:26:02;;;;;;;10.33;6.03;;;3.40;99.90;;;;;;5055183;28;20428;-77
2021/03/18 08:28:41;;;;;;;8.87;5.97;;;3.50;99.90;;;;;;5042047;28;20452;-79
2021/03/18 08:31:13;;;;;;;7.87;6.37;;;3.50;99.90;;;;;;5057903;28;21036;-78
2021/03/18 08:33:53;;;;;;;9.53;7.97;;;3.50;99.90;;;;;;5054078;28;20826;-78
2021/03/18 08:36:21;;;;;;;10.27;6.80;;;3.70;99.90;;;;;;5054256;28;20484;-77
2021/03/18 08:38:49;;;;;;;13.30;7.40;;;3.70;99.90;;;;;;5052063;28;20443;-78
2021/03/18 08:41:27;;;;;;;10.20;7.03;;;3.80;99.90;;;;;;5063354;28;20424;-77
2021/03/18 08:44:18;;;;;;;10.00;7.50;;;3.80;99.90;;;;;;5038159;28;20417;-77
2021/03/18 08:47:05;;;;;;;10.50;7.20;;;4.00;99.90;;;;;;5035014;28;20500;-78
2021/03/18 08:49:36;;;;;;;7.53;5.60;;;4.10;99.90;;;;;;5047247;28;20875;-79
2021/03/18 08:52:18;;;;;;;7.57;6.20;;;4.00;99.90;;;;;;5057526;28;20764;-79
2021/03/18 08:54:49;;;;;;;8.67;6.83;;;3.90;99.90;;;;;;5059587;28;20465;-78
2021/03/18 08:57:22;;;;;;;15.70;8.00;;;4.00;99.90;;;;;;5054122;28;20470;-78
2021/03/18 08:59:51;;;;;;;7.90;6.40;;;4.20;99.90;;;;;;5050370;28;20460;-79
2021/03/18 09:02:20;;;;;;;7.33;6.60;;;4.20;99.90;;;;;;5059434;28;20424;-78
2021/03/18 09:04:47;;;;;;;9.07;6.57;;;4.20;99.90;;;;;;5049366;28;20430;-77
2021/03/18 09:07:15;;;;;;;10.00;5.90;;;4.30;99.90;;;;;;5057795;28;20444;-78
2021/03/18 09:09:41;;;;;;;6.30;5.07;;;4.40;99.90;;;;;;5057903;28;20810;-77
2021/03/18 09:12:08;;;;;;;12.90;6.10;;;4.40;99.90;;;;;;5064281;28;20407;-79
2021/03/18 09:14:38;;;;;;;6.50;4.97;;;4.30;99.90;;;;;;5060455;28;20424;-78
2021/03/18 09:17:12;;;;;;;7.50;5.47;;;4.40;99.90;;;;;;5064596;28;20483;-78
2021/03/18 09:19:44;;;;;;;7.43;4.70;;;4.40;99.90;;;;;;5053367;28;20452;-78
2021/03/18 09:22:14;;;;;;;7.57;5.10;;;4.50;99.90;;;;;;5065755;28;20416;-78
2021/03/18 09:24:41;;;;;;;5.07;4.57;;;4.60;99.90;;;;;;5053947;28;20425;-78
2021/03/18 09:27:13;;;;;;;3.63;3.33;;;5.00;99.90;;;;;;5069860;28;20473;-78
2021/03/18 09:29:40;;;;;;;5.87;4.10;;;5.00;99.90;;;;;;5059712;28;20497;-78
2021/03/18 09:32:07;;;;;;;5.57;4.30;;;5.00;99.90;;;;;;5072806;28;20404;-77
2021/03/18 09:34:38;;;;;;;5.03;3.40;;;5.10;99.90;;;;;;5067286;28;20504;-79
2021/03/18 09:37:08;;;;;;;5.60;3.90;;;5.20;99.90;;;;;;5070338;28;20801;-79
2021/03/18 09:39:34;;;;;;;4.07;3.60;;;5.40;99.90;;;;;;5046187;28;20439;-79
2021/03/18 09:42:03;;;;;;;8.47;4.90;;;5.40;99.90;;;;;;5060396;28;20551;-76
2021/03/18 09:44:30;;;;;;;6.00;4.20;;;5.50;99.90;;;;;;5065898;28;20185;-78
2021/03/18 09:46:57;;;;;;;3.97;3.57;;;5.70;99.90;;;;;;5063887;28;20425;-78
2021/03/18 09:49:30;;;;;;;4.57;3.40;;;5.80;99.90;;;;;;5073789;28;20475;-77
2021/03/18 09:51:56;;;;;;;8.13;4.30;;;5.90;99.90;;;;;;5072957;28;20428;-79
2021/03/18 09:54:23;;;;;;;6.07;4.77;;;5.80;99.90;;;;;;5069905;28;20444;-77
2021/03/18 09:56:51;;;;;;;5.20;4.40;;;5.70;99.90;;;;;;5045925;28;20908;-78
2021/03/18 09:59:19;;;;;;;5.23;4.00;;;5.70;99.90;;;;;;5063151;28;20495;-78
2021/03/18 10:01:45;;;;;;;6.47;5.70;;;5.70;99.90;;;;;;5062510;28;20415;-77
2021/03/18 10:04:14;;;;;;;5.60;4.27;;;5.70;99.90;;;;;;5056657;28;20506;-77
2021/03/18 10:06:57;;;;;;;4.93;3.43;;;5.70;99.90;;;;;;5035545;28;20655;-78
2021/03/18 10:09:39;;;;;;;4.37;3.20;;;5.80;99.90;;;;;;5055595;28;20484;-78
2021/03/18 10:12:10;;;;;;;4.77;3.80;;;5.90;99.90;;;;;;5062106;28;20435;-78
2021/03/18 10:14:45;;;;;;;9.33;3.90;;;6.10;99.90;;;;;;5059289;28;20429;-78
2021/03/18 10:17:13;;;;;;;7.80;3.37;;;6.10;99.90;;;;;;5060055;28;20462;-78
2021/03/18 10:20:06;;;;;;;3.50;3.20;;;6.30;99.90;;;;;;5045319;28;20448;-78
2021/03/18 10:22:46;;;;;;;3.90;3.37;;;6.50;99.90;;;;;;5052145;28;20508;-77
2021/03/18 10:25:24;;;;;;;6.27;4.23;;;6.60;99.90;;;;;;5060688;28;20420;-78
2021/03/18 10:28:10;;;;;;;5.10;3.83;;;6.80;99.90;;;;;;5059871;28;21058;-79
2021/03/18 10:30:51;;;;;;;4.17;3.27;;;6.90;99.90;;;;;;5051960;28;20854;-78
2021/03/18 10:33:24;;;;;;;5.70;3.30;;;6.80;99.90;;;;;;5062241;28;20423;-78
2021/03/18 10:35:53;;;;;;;4.67;3.90;;;6.90;99.90;;;;;;5055952;28;20467;-78
2021/03/18 10:38:38;;;;;;;4.67;4.20;;;6.80;99.90;;;;;;5058015;28;20425;-77
2021/03/18 10:41:16;;;;;;;4.20;3.60;;;6.70;99.90;;;;;;5064481;28;20412;-78
2021/03/18 10:43:44;;;;;;;4.33;3.47;;;6.80;99.90;;;;;;5052484;28;20409;-79
2021/03/18 10:46:24;;;;;;;4.27;3.97;;;7.00;99.90;;;;;;5066071;28;20451;-78
2021/03/18 10:48:50;;;;;;;8.97;4.50;;;7.20;99.90;;;;;;5061475;28;20972;-79
2021/03/18 10:51:17;;;;;;;5.17;4.77;;;7.20;99.90;;;;;;5067291;28;20452;-79
2021/03/18 10:53:44;;;;;;;4.80;4.40;;;7.20;99.90;;;;;;5060814;28;20552;-77
2021/03/18 10:56:29;;;;;;;5.80;5.30;;;7.10;99.90;;;;;;5062757;28;20598;-79
2021/03/18 10:58:55;;;;;;;4.80;4.33;;;7.00;99.90;;;;;;5059178;28;20471;-75
2021/03/18 11:01:24;;;;;;;7.53;4.90;;;6.80;99.90;;;;;;5057752;28;20535;-75
2021/03/18 11:03:50;;;;;;;4.60;4.20;;;7.00;99.90;;;;;;5049743;28;20465;-75
2021/03/18 11:06:20;;;;;;;8.73;5.63;;;6.80;99.90;;;;;;5055260;28;20509;-75
2021/03/18 11:08:48;;;;;;;6.00;5.40;;;6.60;99.90;;;;;;5061707;28;20709;-74
2021/03/18 11:11:17;;;;;;;8.57;7.80;;;6.50;99.90;;;;;;5039967;28;20471;-75
2021/03/18 11:13:43;;;;;;;6.00;4.60;;;6.60;99.90;;;;;;5057746;28;20454;-75
2021/03/18 11:16:11;;;;;;;5.43;4.20;;;6.70;99.90;;;;;;5056961;28;20577;-76
2021/03/18 11:18:38;;;;;;;6.20;5.60;;;6.90;99.90;;;;;;5055141;28;20479;-74
2021/03/18 11:21:25;;;;;;;5.00;4.50;;;6.80;99.90;;;;;;5046495;28;20528;-76
2021/03/18 11:23:54;;;;;;;5.70;4.13;;;6.70;99.90;;;;;;5053868;28;20424;-75
2021/03/18 11:26:23;;;;;;;8.90;4.70;;;6.70;99.90;;;;;;5042621;28;21005;-74
2021/03/18 11:28:57;;;;;;;4.70;4.27;;;6.80;99.90;;;;;;5053627;28;20492;-74
2021/03/18 11:31:24;;;;;;;4.70;4.20;;;6.90;99.90;;;;;;5038698;28;20447;-75
2021/03/18 11:33:50;;;;;;;10.50;5.47;;;6.90;99.90;;;;;;5059697;28;20420;-76
2021/03/18 11:36:16;;;;;;;4.90;4.30;;;6.80;99.90;;;;;;5056543;28;20456;-74
2021/03/18 11:38:42;;;;;;;6.57;4.20;;;7.00;99.90;;;;;;5054557;28;20218;-74
2021/03/18 11:41:08;;;;;;;7.27;4.40;;;7.30;99.90;;;;;;5057658;28;20424;-75
2021/03/18 11:43:34;;;;;;;4.50;4.10;;;7.40;99.90;;;;;;5058278;28;20844;-73
2021/03/18 11:45:59;;;;;;;5.00;4.50;;;7.30;99.90;;;;;;5053901;28;20191;-76
2021/03/18 11:48:25;;;;;;;5.63;4.47;;;7.30;99.90;;;;;;5048828;28;20206;-74
2021/03/18 11:50:51;;;;;;;5.33;4.80;;;7.40;99.90;;;;;;5064065;28;20231;-75
2021/03/18 11:53:18;;;;;;;7.33;5.10;;;7.70;99.90;;;;;;5056285;28;20186;-75
2021/03/18 11:55:44;;;;;;;6.47;4.90;;;8.20;99.90;;;;;;5057582;28;20452;-79
2021/03/18 11:58:10;;;;;;;4.93;4.50;;;8.60;99.90;;;;;;5058185;28;20925;-81
2021/03/18 12:00:37;;;;;;;6.73;5.90;;;9.00;99.90;;;;;;5037383;28;20429;-78
2021/03/18 12:03:05;;;;;;;5.37;3.97;;;9.40;99.90;;;;;;5043165;28;20177;-78
2021/03/18 12:05:31;;;;;;;4.63;3.90;;;9.70;99.90;;;;;;5053275;28;20429;-80
2021/03/18 12:07:57;;;;;;;5.77;4.37;;;10.30;99.90;;;;;;5052047;28;20460;-78
2021/03/18 12:10:23;;;;;;;5.33;4.67;;;10.70;99.90;;;;;;5063192;28;20217;-79
2021/03/18 12:12:49;;;;;;;7.17;5.07;;;10.30;99.90;;;;;;5055650;28;20428;-80
2021/03/18 12:15:15;;;;;;;5.57;4.63;;;10.20;99.90;;;;;;5046674;28;20522;-78
2021/03/18 12:17:42;;;;;;;9.40;4.77;;;10.00;99.90;;;;;;5062722;28;20254;-80
2021/03/18 12:20:11;;;;;;;6.87;5.30;;;9.60;99.90;;;;;;5074043;28;20436;-79
2021/03/18 12:22:37;;;;;;;5.53;5.03;;;9.10;99.90;;;;;;5071440;28;20408;-81
2021/03/18 12:25:05;;;;;;;6.63;5.73;;;8.50;99.90;;;;;;5068727;28;20432;-82
2021/03/18 12:27:31;;;;;;;9.93;6.80;;;8.10;99.90;;;;;;5060338;28;20448;-79
2021/03/18 12:29:56;;;;;;;7.00;5.27;;;7.90;99.90;;;;;;5061913;28;20456;-78
2021/03/18 12:32:22;;;;;;;6.37;5.00;;;7.60;99.90;;;;;;5079941;28;20429;-80
2021/03/18 12:34:48;;;;;;;7.17;5.70;;;7.50;99.90;;;;;;5065768;28;20177;-80
2021/03/18 12:37:14;;;;;;;8.70;6.00;;;7.50;99.90;;;;;;5074208;28;20500;-80
2021/03/18 12:39:44;;;;;;;6.40;5.60;;;7.40;99.90;;;;;;5062339;28;20713;-78
2021/03/18 12:42:11;;;;;;;6.00;5.40;;;7.70;99.90;;;;;;5060737;28;20421;-80
2021/03/18 12:44:38;;;;;;;8.30;6.50;;;7.70;99.90;;;;;;5058854;28;20428;-78
2021/03/18 12:47:04;;;;;;;7.93;5.50;;;7.90;99.90;;;;;;5039696;28;20451;-79
2021/03/18 12:49:29;;;;;;;5.83;5.33;;;7.90;99.90;;;;;;5054970;28;20443;-79
2021/03/18 12:51:55;;;;;;;6.13;5.40;;;8.10;99.90;;;;;;5070424;28;20178;-80
2021/03/18 12:54:21;;;;;;;5.37;4.87;;;8.70;99.90;;;;;;5050038;28;20715;-80
2021/03/18 12:56:46;;;;;;;7.27;5.67;;;9.60;99.90;;;;;;5056640;28;20973;-81
2021/03/18 12:59:12;;;;;;;5.40;4.90;;;9.70;99.90;;;;;;5057776;28;20210;-80
2021/03/18 13:01:37;;;;;;;6.13;5.27;;;9.70;99.90;;;;;;5060301;28;20266;-79
2021/03/18 13:04:03;;;;;;;6.10;5.50;;;9.70;99.90;;;;;;5051445;28;20190;-80
2021/03/18 13:06:29;;;;;;;7.57;5.33;;;9.70;99.90;;;;;;5051797;28;20264;-79